createdAt,value
2023-05-23T00:00:36.898Z,13.67
2023-05-23T00:03:45.512Z,13.70
2023-05-23T00:06:54.250Z,13.66
2023-05-23T00:10:02.951Z,13.65
2023-05-23T00:13:14.717Z,13.64
2023-05-23T00:16:23.834Z,13.68
2023-05-23T00:19:32.303Z,13.67
2023-05-23T00:22:42.213Z,13.58
2023-05-23T00:25:53.429Z,13.57
2023-05-23T00:29:03.364Z,13.47
2023-05-23T00:32:12.284Z,13.71
2023-05-23T00:35:21.101Z,13.56
2023-05-23T00:38:29.743Z,13.36
2023-05-23T00:41:37.891Z,13.40
2023-05-23T00:44:48.416Z,13.35
2023-05-23T00:47:59.178Z,13.32
2023-05-23T00:51:07.545Z,13.53
2023-05-23T00:54:19.049Z,13.53
2023-05-23T00:57:29.470Z,13.64
2023-05-23T01:00:39.838Z,13.84
2023-05-23T01:03:48.802Z,13.95
2023-05-23T01:06:57.945Z,13.96
2023-05-23T01:10:07.561Z,14.02
2023-05-23T01:13:35.590Z,14.22
2023-05-23T01:16:56.786Z,14.22
2023-05-23T01:20:12.754Z,14.39
2023-05-23T01:24:03.836Z,14.28
2023-05-23T01:27:31.657Z,14.28
2023-05-23T01:30:45.760Z,14.53
2023-05-23T01:33:55.969Z,14.57
2023-05-23T01:37:10.750Z,14.68
2023-05-23T01:40:19.905Z,14.64
2023-05-23T01:43:28.961Z,14.68
2023-05-23T01:46:41.961Z,14.74
2023-05-23T01:49:51.680Z,14.80
2023-05-23T01:53:02.025Z,14.80
2023-05-23T01:56:10.610Z,14.94
2023-05-23T01:59:19.504Z,14.95
2023-05-23T02:02:30.144Z,14.90
2023-05-23T02:05:38.495Z,15.00
2023-05-23T02:08:46.727Z,15.03
2023-05-23T02:11:55.472Z,15.00
2023-05-23T02:15:04.403Z,14.92
2023-05-23T02:18:14.288Z,14.99
2023-05-23T02:21:25.244Z,15.00
2023-05-23T02:24:33.502Z,15.00
2023-05-23T02:27:41.872Z,15.02
2023-05-23T02:30:50.586Z,14.98
2023-05-23T02:34:00.212Z,15.03
2023-05-23T02:37:08.557Z,14.97
2023-05-23T02:40:18.936Z,14.92
2023-05-23T02:43:28.906Z,15.04
2023-05-23T02:46:37.143Z,14.95
2023-05-23T02:49:47.722Z,14.97
2023-05-23T02:52:56.301Z,14.92
2023-05-23T02:56:04.640Z,14.84
2023-05-23T02:59:13.709Z,14.86
2023-05-23T03:02:22.746Z,14.73
2023-05-23T03:05:32.580Z,14.58
2023-05-23T03:08:41.317Z,14.62
2023-05-23T03:11:49.722Z,14.51
2023-05-23T03:14:58.406Z,14.53
2023-05-23T03:18:07.112Z,14.48
2023-05-23T03:21:17.057Z,14.52
2023-05-23T03:24:26.105Z,14.47
2023-05-23T03:27:34.526Z,14.56
2023-05-23T03:30:43.208Z,14.60
2023-05-23T03:33:53.792Z,14.64
2023-05-23T03:37:03.495Z,14.62
2023-05-23T03:40:12.686Z,14.52
2023-05-23T03:43:21.571Z,14.55
2023-05-23T03:46:30.871Z,14.55
2023-05-23T03:49:39.473Z,14.64
2023-05-23T03:52:49.150Z,14.77
2023-05-23T03:55:57.732Z,14.91
2023-05-23T03:59:07.052Z,14.92
2023-05-23T04:02:15.813Z,15.02
2023-05-23T04:05:24.550Z,15.04
2023-05-23T04:08:35.582Z,15.11
2023-05-23T04:11:44.193Z,15.14
2023-05-23T04:14:52.662Z,15.16
2023-05-23T04:18:01.217Z,15.42
2023-05-23T04:21:09.633Z,15.49
2023-05-23T04:24:26.482Z,15.61
2023-05-23T04:27:36.345Z,15.72
2023-05-23T04:30:46.313Z,15.82
2023-05-23T04:33:56.401Z,15.83
2023-05-23T04:37:04.925Z,16.00
2023-05-23T04:40:16.241Z,16.07
2023-05-23T04:43:42.525Z,16.08
2023-05-23T04:46:59.129Z,16.27
2023-05-23T04:50:26.187Z,16.29
2023-05-23T04:53:36.917Z,16.36
2023-05-23T04:56:46.959Z,16.22
2023-05-23T04:59:57.451Z,16.32
2023-05-23T05:03:09.784Z,16.25
2023-05-23T05:06:21.654Z,16.28
2023-05-23T05:09:31.556Z,16.50
2023-05-23T05:12:41.215Z,16.64
2023-05-23T05:15:49.677Z,16.64
2023-05-23T05:18:59.208Z,16.65
2023-05-23T05:22:07.985Z,16.71
2023-05-23T05:25:16.667Z,16.80
2023-05-23T05:28:26.172Z,16.80
2023-05-23T05:31:35.957Z,16.81
2023-05-23T05:34:46.433Z,16.91
2023-05-23T05:37:55.990Z,17.01
2023-05-23T05:41:08.920Z,17.12
2023-05-23T05:44:22.171Z,17.28
2023-05-23T05:47:30.911Z,17.20
2023-05-23T05:50:39.972Z,17.29
2023-05-23T05:53:49.602Z,17.55
2023-05-23T05:56:58.419Z,17.77
2023-05-23T06:00:14.935Z,17.81
2023-05-23T06:03:34.260Z,18.28
2023-05-23T06:06:42.954Z,18.90
2023-05-23T06:09:51.581Z,19.77
2023-05-23T06:13:00.768Z,20.28
2023-05-23T06:16:10.748Z,20.49
2023-05-23T06:19:19.078Z,20.86
2023-05-23T06:22:27.718Z,20.55
2023-05-23T06:25:36.246Z,20.36
2023-05-23T06:28:44.390Z,20.27
2023-05-23T06:31:54.017Z,20.34
2023-05-23T06:35:02.180Z,19.66
2023-05-23T06:38:10.592Z,19.74
2023-05-23T06:41:19.261Z,19.46
2023-05-23T06:44:27.543Z,19.34
2023-05-23T06:47:37.396Z,21.38
2023-05-23T06:50:45.791Z,23.01
2023-05-23T06:53:56.476Z,23.30
2023-05-23T06:57:05.062Z,23.02
2023-05-23T07:00:15.385Z,23.46
2023-05-23T07:03:41.683Z,24.51
2023-05-23T07:06:52.669Z,25.42
2023-05-23T07:10:01.798Z,24.84
2023-05-23T07:13:10.608Z,25.52
2023-05-23T07:16:19.670Z,23.56
2023-05-23T07:19:42.976Z,21.61
2023-05-23T07:22:51.864Z,21.47
2023-05-23T07:26:03.085Z,21.62
2023-05-23T07:29:24.089Z,23.01
2023-05-23T07:32:34.437Z,23.94
2023-05-23T07:35:46.350Z,24.94
2023-05-23T07:38:54.939Z,23.43
2023-05-23T07:42:03.192Z,22.88
2023-05-23T07:45:13.104Z,22.14
2023-05-23T07:48:24.175Z,20.22
2023-05-23T07:51:33.952Z,19.43
2023-05-23T07:54:42.657Z,19.15
2023-05-23T07:57:52.643Z,18.69
2023-05-23T08:01:03.595Z,19.02
2023-05-23T08:04:35.000Z,19.02
2023-05-23T08:07:47.291Z,19.09
2023-05-23T08:10:56.492Z,19.09
2023-05-23T08:14:10.638Z,18.83
2023-05-23T08:17:18.914Z,19.24
2023-05-23T08:20:31.073Z,19.92
2023-05-23T08:23:44.675Z,19.83
2023-05-23T08:26:53.031Z,20.09
2023-05-23T08:30:03.904Z,20.38
2023-05-23T08:33:12.834Z,19.96
2023-05-23T08:36:23.973Z,19.95
2023-05-23T08:39:33.797Z,19.06
2023-05-23T08:43:05.872Z,18.92
2023-05-23T08:46:16.501Z,19.59
2023-05-23T08:49:25.620Z,19.75
2023-05-23T08:52:36.338Z,19.58
2023-05-23T08:55:47.601Z,19.81
2023-05-23T08:58:57.378Z,20.37
2023-05-23T09:02:13.161Z,19.88
2023-05-23T09:05:22.764Z,20.71
2023-05-23T09:08:32.162Z,19.95
2023-05-23T09:11:46.100Z,19.64
2023-05-23T09:14:56.351Z,19.11
2023-05-23T09:18:06.749Z,19.02
2023-05-23T09:21:16.046Z,19.32
2023-05-23T09:24:43.047Z,19.41
2023-05-23T09:27:56.309Z,19.33
2023-05-23T09:31:08.844Z,19.25
2023-05-23T09:34:17.521Z,19.58
2023-05-23T09:37:32.932Z,19.60
2023-05-23T09:40:46.628Z,21.05
2023-05-23T09:43:56.493Z,21.00
2023-05-23T09:47:08.645Z,21.61
2023-05-23T09:50:18.247Z,22.06
2023-05-23T09:53:27.510Z,21.11
2023-05-23T09:56:42.002Z,19.98
2023-05-23T09:59:55.326Z,19.60
2023-05-23T10:03:12.649Z,20.41
2023-05-23T10:06:28.201Z,20.04
2023-05-23T10:09:41.781Z,20.78
2023-05-23T10:12:56.517Z,20.90
2023-05-23T10:16:17.075Z,20.88
2023-05-23T10:19:28.284Z,20.03
2023-05-23T10:22:38.269Z,19.40
2023-05-23T10:25:47.770Z,19.39
2023-05-23T10:28:58.657Z,19.43
2023-05-23T10:32:10.866Z,19.48
2023-05-23T10:35:31.677Z,19.73
2023-05-23T10:38:52.002Z,20.02
2023-05-23T10:42:07.229Z,19.84
2023-05-23T10:45:20.903Z,19.49
2023-05-23T10:48:37.354Z,19.31
2023-05-23T10:51:51.220Z,19.44
2023-05-23T10:55:00.522Z,19.06
2023-05-23T10:58:16.527Z,19.21
2023-05-23T11:01:25.644Z,19.65
2023-05-23T11:04:36.162Z,19.31
2023-05-23T11:07:44.621Z,19.52
2023-05-23T11:11:00.034Z,19.62
2023-05-23T11:14:08.293Z,19.53
2023-05-23T11:17:18.455Z,19.55
2023-05-23T11:20:30.615Z,19.57
2023-05-23T11:23:43.062Z,19.34
2023-05-23T11:27:00.147Z,20.06
2023-05-23T11:30:13.530Z,20.45
2023-05-23T11:33:22.321Z,20.35
2023-05-23T11:36:32.555Z,20.04
2023-05-23T11:39:41.126Z,19.96
2023-05-23T11:42:49.328Z,20.04
2023-05-23T11:45:57.585Z,19.81
2023-05-23T11:49:13.172Z,20.01
2023-05-23T11:52:23.068Z,20.62
2023-05-23T11:55:31.698Z,20.76
2023-05-23T11:58:41.716Z,21.61
2023-05-23T12:01:50.166Z,22.55
2023-05-23T12:04:58.560Z,21.44
2023-05-23T12:08:08.617Z,20.99
2023-05-23T12:11:16.932Z,20.63
2023-05-23T12:14:25.458Z,20.59
2023-05-23T12:17:34.822Z,20.79
2023-05-23T12:20:43.713Z,20.68
2023-05-23T12:23:53.484Z,20.83
2023-05-23T12:27:04.148Z,20.89
2023-05-23T12:30:16.448Z,21.48
2023-05-23T12:33:24.868Z,21.69
2023-05-23T12:36:36.224Z,21.64
2023-05-23T12:39:49.632Z,22.10
2023-05-23T12:42:59.812Z,22.48
2023-05-23T12:46:08.771Z,22.33
2023-05-23T12:49:17.054Z,21.99
2023-05-23T12:52:25.677Z,21.19
2023-05-23T12:55:35.270Z,21.01
2023-05-23T12:58:44.323Z,20.80
2023-05-23T13:01:52.934Z,20.55
2023-05-23T13:05:01.267Z,20.71
2023-05-23T13:08:09.488Z,21.20
2023-05-23T13:11:19.900Z,21.72
2023-05-23T13:14:28.138Z,21.73
2023-05-23T13:17:36.511Z,21.55
2023-05-23T13:20:45.352Z,21.44
2023-05-23T13:23:53.825Z,21.47
2023-05-23T13:27:03.495Z,20.82
2023-05-23T13:30:12.847Z,20.55
2023-05-23T13:33:22.124Z,20.20
2023-05-23T13:36:30.579Z,20.29
2023-05-23T13:39:39.120Z,19.91
2023-05-23T13:42:51.907Z,19.16
2023-05-23T13:46:02.034Z,17.91
2023-05-23T13:49:10.406Z,17.43
2023-05-23T13:52:19.558Z,17.06
2023-05-23T13:55:28.579Z,17.39
2023-05-23T13:58:40.814Z,17.34
2023-05-23T14:01:49.522Z,16.90
2023-05-23T14:04:58.468Z,16.70
2023-05-23T14:08:07.112Z,16.85
2023-05-23T14:11:15.308Z,17.09
2023-05-23T14:14:26.933Z,17.34
2023-05-23T14:17:35.191Z,17.20
2023-05-23T14:20:43.786Z,17.11
2023-05-23T14:23:52.087Z,16.95
2023-05-23T14:27:00.690Z,17.05
2023-05-23T14:30:12.534Z,16.95
2023-05-23T14:33:20.944Z,17.22
2023-05-23T14:36:29.834Z,17.35
2023-05-23T14:39:38.132Z,17.85
2023-05-23T14:42:46.532Z,18.43
2023-05-23T14:45:56.224Z,19.09
2023-05-23T14:49:04.900Z,19.34
2023-05-23T14:52:14.160Z,20.12
2023-05-23T14:55:22.846Z,20.30
2023-05-23T14:58:31.288Z,20.34
2023-05-23T15:01:41.744Z,20.49
2023-05-23T15:04:50.585Z,20.05
2023-05-23T15:07:58.963Z,20.10
2023-05-23T15:11:09.721Z,19.73
2023-05-23T15:14:18.698Z,18.98
2023-05-23T15:17:28.759Z,18.71
2023-05-23T15:20:38.131Z,18.54
2023-05-23T15:23:50.241Z,18.09
2023-05-23T15:27:11.729Z,18.16
2023-05-23T15:30:27.189Z,17.99
2023-05-23T15:33:37.371Z,18.10
2023-05-23T15:36:46.393Z,17.93
2023-05-23T15:39:55.015Z,17.90
2023-05-23T15:43:03.929Z,17.46
2023-05-23T15:46:12.630Z,17.54
2023-05-23T15:49:26.599Z,17.14
2023-05-23T15:52:35.803Z,17.25
2023-05-23T15:55:44.418Z,17.16
2023-05-23T15:58:52.928Z,17.02
2023-05-23T16:02:05.436Z,17.16
2023-05-23T16:05:15.493Z,17.28
2023-05-23T16:08:24.351Z,17.36
2023-05-23T16:11:32.828Z,17.33
2023-05-23T16:14:41.276Z,17.46
2023-05-23T16:17:49.522Z,17.61
2023-05-23T16:20:59.154Z,17.73
2023-05-23T16:24:07.685Z,17.73
2023-05-23T16:27:16.282Z,17.72
2023-05-23T16:30:27.821Z,17.54
2023-05-23T16:33:36.334Z,17.80
2023-05-23T16:36:47.186Z,17.87
2023-05-23T16:39:56.322Z,17.89
2023-05-23T16:43:05.068Z,17.92
2023-05-23T16:46:13.769Z,18.37
2023-05-23T16:49:22.654Z,19.96
2023-05-23T16:52:33.983Z,20.08
2023-05-23T16:55:43.150Z,19.99
2023-05-23T16:58:55.378Z,19.55
2023-05-23T17:02:04.519Z,18.72
2023-05-23T17:05:13.438Z,18.91
2023-05-23T17:08:23.570Z,18.84
2023-05-23T17:11:32.220Z,18.69
2023-05-23T17:14:40.536Z,18.51
2023-05-23T17:17:49.159Z,18.45
2023-05-23T17:20:57.668Z,18.06
2023-05-23T17:24:07.946Z,18.07
2023-05-23T17:27:16.405Z,17.87
2023-05-23T17:30:25.802Z,17.84
2023-05-23T17:33:34.263Z,17.73
2023-05-23T17:36:43.100Z,17.82
2023-05-23T17:39:54.605Z,17.71
2023-05-23T17:43:05.607Z,17.56
2023-05-23T17:46:14.904Z,17.44
2023-05-23T17:49:23.898Z,17.44
2023-05-23T17:52:32.500Z,17.42
2023-05-23T17:55:42.570Z,17.35
2023-05-23T17:58:50.917Z,17.34
2023-05-23T18:01:59.906Z,17.31
2023-05-23T18:05:10.519Z,17.20
2023-05-23T18:08:19.215Z,17.02
2023-05-23T18:11:30.394Z,16.91
2023-05-23T18:14:39.962Z,16.89
2023-05-23T18:17:51.497Z,16.63
2023-05-23T18:20:59.854Z,16.75
2023-05-23T18:24:09.102Z,16.66
2023-05-23T18:27:19.071Z,16.57
2023-05-23T18:30:28.401Z,16.51
2023-05-23T18:33:37.140Z,16.53
2023-05-23T18:36:45.835Z,16.50
2023-05-23T18:39:57.989Z,16.46
2023-05-23T18:43:07.976Z,16.47
2023-05-23T18:46:17.258Z,16.45
2023-05-23T18:49:26.432Z,16.42
2023-05-23T18:52:37.281Z,16.37
2023-05-23T18:55:46.353Z,16.29
2023-05-23T18:58:56.283Z,16.31
2023-05-23T19:02:05.791Z,16.22
2023-05-23T19:05:15.218Z,16.23
2023-05-23T19:08:23.804Z,16.06
2023-05-23T19:11:32.394Z,16.03
2023-05-23T19:14:42.338Z,16.15
2023-05-23T19:17:50.976Z,16.10
2023-05-23T19:20:59.961Z,16.08
2023-05-23T19:24:09.208Z,16.04
2023-05-23T19:27:17.529Z,15.98
2023-05-23T19:30:27.400Z,15.88
2023-05-23T19:33:36.381Z,15.82
2023-05-23T19:36:45.047Z,15.71
2023-05-23T19:39:53.672Z,15.68
2023-05-23T19:43:02.441Z,15.57
2023-05-23T19:46:13.682Z,15.48
2023-05-23T19:49:21.987Z,15.49
2023-05-23T19:52:30.200Z,15.30
2023-05-23T19:55:39.006Z,15.16
2023-05-23T19:58:47.276Z,15.13
2023-05-23T20:01:57.220Z,14.99
2023-05-23T20:05:11.406Z,14.83
2023-05-23T20:08:19.880Z,14.96
2023-05-23T20:11:29.117Z,14.80
2023-05-23T20:14:37.735Z,14.72
2023-05-23T20:17:47.676Z,14.66
2023-05-23T20:20:56.421Z,14.65
2023-05-23T20:24:05.265Z,14.69
2023-05-23T20:27:14.001Z,14.62
2023-05-23T20:30:23.068Z,14.46
2023-05-23T20:33:34.308Z,14.27
2023-05-23T20:36:42.625Z,14.24
2023-05-23T20:39:52.353Z,14.45
2023-05-23T20:43:04.803Z,14.31
2023-05-23T20:46:14.618Z,14.05
2023-05-23T20:49:24.879Z,14.26
2023-05-23T20:52:33.354Z,14.25
2023-05-23T20:55:42.628Z,14.20
2023-05-23T20:58:51.146Z,14.04
2023-05-23T21:01:59.486Z,13.96
2023-05-23T21:05:11.866Z,13.79
2023-05-23T21:08:21.145Z,13.87
2023-05-23T21:11:29.783Z,13.90
2023-05-23T21:14:38.236Z,13.83
2023-05-23T21:17:47.551Z,13.86
2023-05-23T21:20:57.352Z,13.91
2023-05-23T21:24:06.502Z,13.86
2023-05-23T21:27:15.096Z,13.95
2023-05-23T21:30:25.119Z,13.86
2023-05-23T21:33:34.635Z,13.73
2023-05-23T21:36:44.335Z,13.64
2023-05-23T21:39:53.104Z,13.70
2023-05-23T21:43:01.457Z,13.58
2023-05-23T21:46:09.889Z,13.43
2023-05-23T21:49:18.225Z,13.35
2023-05-23T21:52:27.911Z,13.28
2023-05-23T21:55:36.185Z,13.20
2023-05-23T21:58:44.428Z,13.32
2023-05-23T22:01:52.900Z,13.27
2023-05-23T22:05:01.653Z,13.24
2023-05-23T22:08:13.819Z,13.23
2023-05-23T22:11:22.051Z,13.20
2023-05-23T22:14:30.355Z,13.27
2023-05-23T22:17:43.355Z,13.19
2023-05-23T22:20:51.723Z,13.13
2023-05-23T22:24:01.800Z,13.30
2023-05-23T22:27:10.116Z,13.28
2023-05-23T22:30:18.931Z,13.17
2023-05-23T22:33:27.122Z,13.08
2023-05-23T22:36:36.657Z,13.03
2023-05-23T22:39:46.406Z,12.96
2023-05-23T22:42:54.930Z,12.99
2023-05-23T22:46:03.647Z,12.89
2023-05-23T22:49:12.007Z,12.86
2023-05-23T22:52:20.464Z,12.93
2023-05-23T22:55:30.391Z,12.90
2023-05-23T22:58:38.609Z,12.87
2023-05-23T23:01:47.254Z,12.80
2023-05-23T23:04:55.930Z,12.70
2023-05-23T23:08:04.745Z,12.70
2023-05-23T23:11:14.770Z,12.66
2023-05-23T23:14:23.044Z,12.67
2023-05-23T23:17:31.320Z,12.71
2023-05-23T23:20:39.891Z,12.74
2023-05-23T23:23:48.125Z,12.71
2023-05-23T23:26:58.201Z,12.71
2023-05-23T23:30:08.289Z,12.60
2023-05-23T23:33:16.764Z,12.50
2023-05-23T23:36:25.101Z,12.44
2023-05-23T23:39:33.529Z,12.53
2023-05-23T23:42:43.341Z,12.80
2023-05-23T23:45:53.763Z,12.77
2023-05-23T23:49:02.042Z,12.67
2023-05-23T23:52:10.556Z,12.59
2023-05-23T23:55:19.092Z,12.61
2023-05-23T23:58:29.200Z,12.58
